createdAt,value
2022-08-31T00:00:02.313Z,3.90
2022-08-31T00:00:12.383Z,3.90
2022-08-31T00:00:22.433Z,2.90
2022-08-31T00:00:32.486Z,8.80
2022-08-31T00:00:42.523Z,8.60
2022-08-31T00:00:52.603Z,7.90
2022-08-31T00:01:02.651Z,4.70
2022-08-31T00:01:12.724Z,4.70
2022-08-31T00:01:22.791Z,5.10
2022-08-31T00:01:32.815Z,2.70
2022-08-31T00:01:42.962Z,3.30
2022-08-31T00:01:53.070Z,3.40
2022-08-31T00:02:03.267Z,3.40
2022-08-31T00:02:13.243Z,4.40
2022-08-31T00:02:23.367Z,4.10
2022-08-31T00:02:33.493Z,4.00
2022-08-31T00:02:43.582Z,2.20
2022-08-31T00:02:53.686Z,3.10
2022-08-31T00:03:03.762Z,3.20
2022-08-31T00:03:13.933Z,3.60
2022-08-31T00:03:24.012Z,2.70
2022-08-31T00:03:34.104Z,2.90
2022-08-31T00:03:44.156Z,3.70
2022-08-31T00:03:54.231Z,3.70
2022-08-31T00:04:04.292Z,3.40
2022-08-31T00:04:14.422Z,2.50
2022-08-31T00:04:24.473Z,2.40
2022-08-31T00:04:34.520Z,2.50
2022-08-31T00:04:44.641Z,2.70
2022-08-31T00:04:54.798Z,2.70
2022-08-31T00:05:04.866Z,2.20
2022-08-31T00:05:14.934Z,1.70
2022-08-31T00:05:25.033Z,2.10
2022-08-31T00:05:35.117Z,2.60
2022-08-31T00:05:45.232Z,2.70
2022-08-31T00:05:55.296Z,3.20
2022-08-31T00:06:05.372Z,2.90
2022-08-31T00:06:15.433Z,3.90
2022-08-31T00:06:25.501Z,3.90
2022-08-31T00:06:35.562Z,3.70
2022-08-31T00:06:45.641Z,2.90
2022-08-31T00:06:55.796Z,2.40
2022-08-31T00:07:05.862Z,4.10
2022-08-31T00:07:15.943Z,4.40
2022-08-31T00:07:26.011Z,5.20
2022-08-31T00:07:36.112Z,3.80
2022-08-31T00:07:46.153Z,3.30
2022-08-31T00:07:56.323Z,3.80
2022-08-31T00:08:06.413Z,4.60
2022-08-31T00:08:16.490Z,5.00
2022-08-31T00:08:26.563Z,4.30
2022-08-31T00:08:36.636Z,4.30
2022-08-31T00:08:46.712Z,3.90
2022-08-31T00:08:56.782Z,3.90
2022-08-31T00:09:06.851Z,3.80
2022-08-31T00:09:16.932Z,4.90
2022-08-31T00:09:27.004Z,3.60
2022-08-31T00:09:37.103Z,3.20
2022-08-31T00:09:47.183Z,2.80
2022-08-31T00:09:57.262Z,3.80
2022-08-31T00:10:07.324Z,3.40
2022-08-31T00:10:17.402Z,2.90
2022-08-31T00:10:31.639Z,2.80
2022-08-31T00:10:37.979Z,3.10
2022-08-31T00:10:47.530Z,3.90
2022-08-31T00:10:57.596Z,3.90
2022-08-31T00:11:07.662Z,3.80
2022-08-31T00:11:17.816Z,4.00
2022-08-31T00:11:27.883Z,4.20
2022-08-31T00:11:38.121Z,3.10
2022-08-31T00:11:48.163Z,4.10
2022-08-31T00:11:58.253Z,3.30
2022-08-31T00:12:08.323Z,3.60
2022-08-31T00:12:18.487Z,4.30
2022-08-31T00:12:28.573Z,4.80
2022-08-31T00:12:38.662Z,4.30
2022-08-31T00:12:48.750Z,2.40
2022-08-31T00:12:58.820Z,2.60
2022-08-31T00:13:08.894Z,3.20
2022-08-31T00:13:19.208Z,3.50
2022-08-31T00:13:29.255Z,3.40
2022-08-31T00:13:39.262Z,3.60
2022-08-31T00:13:49.441Z,3.90
2022-08-31T00:13:59.520Z,3.40
2022-08-31T00:14:13.443Z,2.80
2022-08-31T00:14:19.674Z,2.70
2022-08-31T00:14:29.842Z,3.10
2022-08-31T00:14:39.921Z,3.00
2022-08-31T00:14:50.034Z,3.30
2022-08-31T00:15:00.113Z,3.60
2022-08-31T00:15:10.183Z,4.20
2022-08-31T00:15:20.262Z,3.70
2022-08-31T00:15:31.226Z,3.40
2022-08-31T00:15:41.303Z,4.00
2022-08-31T00:15:51.373Z,4.30
2022-08-31T00:16:01.470Z,4.40
2022-08-31T00:16:11.563Z,4.40
2022-08-31T00:16:21.704Z,6.80
2022-08-31T00:16:31.819Z,9.30
2022-08-31T00:16:41.959Z,8.20
2022-08-31T00:16:52.078Z,5.60
2022-08-31T00:17:02.192Z,4.90
2022-08-31T00:17:12.272Z,5.90
2022-08-31T00:17:22.362Z,5.70
2022-08-31T00:17:32.432Z,5.20
2022-08-31T00:17:42.501Z,3.60
2022-08-31T00:17:52.573Z,3.60
2022-08-31T00:18:02.642Z,3.50
2022-08-31T00:18:12.713Z,3.60
2022-08-31T00:18:22.811Z,3.80
2022-08-31T00:18:32.884Z,3.10
2022-08-31T00:18:42.962Z,4.30
2022-08-31T00:18:53.022Z,3.60
2022-08-31T00:19:03.092Z,3.50
2022-08-31T00:19:13.161Z,2.60
2022-08-31T00:19:23.230Z,3.00
2022-08-31T00:19:33.312Z,3.80
2022-08-31T00:19:43.412Z,4.60
2022-08-31T00:19:53.503Z,4.00
2022-08-31T00:20:03.562Z,3.20
2022-08-31T00:20:21.565Z,2.10
2022-08-31T00:20:34.146Z,2.60
2022-08-31T00:20:35.556Z,2.60
2022-08-31T00:20:45.634Z,3.20
2022-08-31T00:20:55.701Z,2.80
2022-08-31T00:21:05.772Z,4.10
2022-08-31T00:21:15.844Z,3.90
2022-08-31T00:21:25.912Z,4.30
2022-08-31T00:21:35.992Z,3.40
2022-08-31T00:21:46.071Z,3.40
2022-08-31T00:21:56.142Z,4.00
2022-08-31T00:22:06.221Z,3.60
2022-08-31T00:22:16.292Z,3.50
2022-08-31T00:22:26.363Z,3.60
2022-08-31T00:22:36.435Z,4.10
2022-08-31T00:22:46.522Z,5.60
2022-08-31T00:22:56.962Z,4.40
2022-08-31T00:23:06.653Z,4.10
2022-08-31T00:23:16.833Z,2.20
2022-08-31T00:23:26.752Z,3.80
2022-08-31T00:23:36.844Z,3.90
2022-08-31T00:23:46.912Z,4.20
2022-08-31T00:23:56.983Z,2.50
2022-08-31T00:24:07.051Z,3.20
2022-08-31T00:24:17.141Z,2.60
2022-08-31T00:24:27.232Z,2.60
2022-08-31T00:24:37.309Z,1.80
2022-08-31T00:24:47.386Z,1.90
2022-08-31T00:24:57.463Z,2.40
2022-08-31T00:25:07.530Z,2.70
2022-08-31T00:25:17.601Z,2.60
2022-08-31T00:25:27.674Z,2.40
2022-08-31T00:25:37.749Z,3.00
2022-08-31T00:25:47.813Z,3.50
2022-08-31T00:25:57.872Z,3.90
2022-08-31T00:26:07.950Z,3.50
2022-08-31T00:26:18.017Z,2.70
2022-08-31T00:26:28.081Z,2.10
2022-08-31T00:26:38.142Z,2.30
2022-08-31T00:26:48.202Z,2.80
2022-08-31T00:26:58.323Z,2.60
2022-08-31T00:27:08.392Z,2.40
2022-08-31T00:27:18.483Z,2.00
2022-08-31T00:27:28.553Z,2.10
2022-08-31T00:27:38.624Z,2.20
2022-08-31T00:27:48.691Z,2.80
2022-08-31T00:27:58.770Z,3.00
2022-08-31T00:28:08.845Z,3.40
2022-08-31T00:28:18.920Z,3.10
2022-08-31T00:28:28.986Z,3.40
2022-08-31T00:28:39.062Z,2.70
2022-08-31T00:28:49.135Z,2.30
2022-08-31T00:28:59.213Z,1.80
2022-08-31T00:29:09.283Z,5.00
2022-08-31T00:29:19.370Z,4.90
2022-08-31T00:29:29.443Z,5.10
2022-08-31T00:29:39.542Z,2.10
2022-08-31T00:29:49.662Z,3.10
2022-08-31T00:29:59.750Z,4.10
2022-08-31T00:30:09.823Z,4.80
2022-08-31T00:30:19.896Z,3.80
2022-08-31T00:30:29.952Z,2.70
2022-08-31T00:30:40.032Z,2.00
2022-08-31T00:30:50.125Z,3.40
2022-08-31T00:31:00.222Z,3.50
2022-08-31T00:31:10.339Z,3.40
2022-08-31T00:31:20.468Z,2.40
2022-08-31T00:31:30.585Z,3.10
2022-08-31T00:31:40.683Z,3.20
2022-08-31T00:31:50.876Z,2.90
2022-08-31T00:32:00.979Z,5.70
2022-08-31T00:32:11.131Z,5.60
2022-08-31T00:32:22.383Z,5.30
2022-08-31T00:32:31.283Z,2.30
2022-08-31T00:32:41.373Z,3.80
2022-08-31T00:32:51.442Z,4.80
2022-08-31T00:33:01.590Z,5.60
2022-08-31T00:33:11.694Z,4.60
2022-08-31T00:33:21.763Z,4.30
2022-08-31T00:33:31.835Z,3.50
2022-08-31T00:33:41.915Z,2.70
2022-08-31T00:33:51.995Z,3.20
2022-08-31T00:34:02.071Z,3.50
2022-08-31T00:34:12.145Z,4.80
2022-08-31T00:34:22.223Z,4.50
2022-08-31T00:34:32.383Z,3.70
2022-08-31T00:34:42.452Z,2.60
2022-08-31T00:34:52.521Z,2.10
2022-08-31T00:35:02.591Z,2.50
2022-08-31T00:35:12.806Z,3.00
2022-08-31T00:35:22.734Z,3.00
2022-08-31T00:35:32.809Z,2.90
2022-08-31T00:35:42.901Z,3.70
2022-08-31T00:35:53.009Z,3.90
2022-08-31T00:36:03.091Z,3.80
2022-08-31T00:36:13.162Z,3.60
2022-08-31T00:36:23.242Z,3.60
2022-08-31T00:36:33.312Z,3.80
2022-08-31T00:36:43.390Z,2.50
2022-08-31T00:36:53.463Z,3.50
2022-08-31T00:37:03.530Z,3.60
2022-08-31T00:37:13.532Z,4.10
2022-08-31T00:37:23.611Z,3.30
2022-08-31T00:37:33.682Z,3.00
2022-08-31T00:37:43.767Z,2.90
2022-08-31T00:37:53.854Z,2.80
2022-08-31T00:38:03.952Z,3.60
2022-08-31T00:38:14.407Z,3.30
2022-08-31T00:38:24.173Z,2.90
2022-08-31T00:38:34.254Z,2.80
2022-08-31T00:38:44.332Z,2.90
2022-08-31T00:38:54.407Z,3.10
2022-08-31T00:39:04.497Z,2.90
2022-08-31T00:39:14.560Z,2.90
2022-08-31T00:39:24.623Z,2.70
2022-08-31T00:39:34.684Z,3.00
2022-08-31T00:39:44.770Z,3.30
2022-08-31T00:39:54.842Z,3.90
2022-08-31T00:40:04.939Z,3.00
2022-08-31T00:40:15.068Z,5.10
2022-08-31T00:40:25.225Z,4.50
2022-08-31T00:40:44.407Z,5.90
2022-08-31T00:40:46.246Z,4.10
2022-08-31T00:40:56.380Z,4.50
2022-08-31T00:41:06.445Z,2.70
2022-08-31T00:41:16.531Z,2.20
2022-08-31T00:41:26.602Z,1.60
2022-08-31T00:41:39.593Z,1.90
2022-08-31T00:41:46.760Z,2.30
2022-08-31T00:41:56.821Z,2.70
2022-08-31T00:42:07.800Z,3.70
2022-08-31T00:42:18.502Z,4.70
2022-08-31T00:42:28.053Z,4.50
2022-08-31T00:42:38.112Z,3.10
2022-08-31T00:42:48.187Z,2.10
2022-08-31T00:42:58.265Z,3.10
2022-08-31T00:43:08.325Z,3.30
2022-08-31T00:43:18.635Z,3.50
2022-08-31T00:43:28.552Z,3.10
2022-08-31T00:43:38.622Z,4.30
2022-08-31T00:43:48.699Z,4.80
2022-08-31T00:43:58.771Z,4.60
2022-08-31T00:44:08.843Z,3.50
2022-08-31T00:44:18.891Z,2.70
2022-08-31T00:44:28.974Z,2.50
2022-08-31T00:44:39.063Z,2.70
2022-08-31T00:44:49.181Z,5.30
2022-08-31T00:44:59.232Z,7.60
2022-08-31T00:45:09.301Z,7.60
2022-08-31T00:45:19.409Z,5.70
2022-08-31T00:45:29.483Z,3.00
2022-08-31T00:45:39.598Z,2.60
2022-08-31T00:45:49.724Z,2.30
2022-08-31T00:45:59.916Z,3.10
2022-08-31T00:46:09.865Z,3.40
2022-08-31T00:46:19.951Z,3.40
2022-08-31T00:46:30.030Z,2.60
2022-08-31T00:46:40.102Z,4.80
2022-08-31T00:46:50.167Z,5.70
2022-08-31T00:47:00.222Z,5.80
2022-08-31T00:47:10.289Z,3.70
2022-08-31T00:47:20.360Z,6.20
2022-08-31T00:47:30.429Z,8.00
2022-08-31T00:47:40.492Z,8.40
2022-08-31T00:47:50.578Z,5.70
2022-08-31T00:48:00.634Z,4.30
2022-08-31T00:48:10.736Z,4.60
2022-08-31T00:48:20.823Z,4.60
2022-08-31T00:48:30.882Z,5.30
2022-08-31T00:48:40.952Z,4.50
2022-08-31T00:48:51.022Z,3.50
2022-08-31T00:49:01.029Z,2.50
2022-08-31T00:49:11.101Z,4.00
2022-08-31T00:49:21.190Z,5.30
2022-08-31T00:49:31.248Z,4.90
2022-08-31T00:49:41.310Z,3.70
2022-08-31T00:49:51.361Z,2.90
2022-08-31T00:50:01.435Z,4.00
2022-08-31T00:50:11.502Z,3.20
2022-08-31T00:50:21.567Z,2.80
2022-08-31T00:50:31.641Z,1.80
2022-08-31T00:50:41.709Z,2.50
2022-08-31T00:50:51.772Z,4.80
2022-08-31T00:51:01.832Z,5.90
2022-08-31T00:51:11.912Z,6.10
2022-08-31T00:51:22.202Z,4.40
2022-08-31T00:51:32.265Z,4.20
2022-08-31T00:51:42.342Z,3.60
2022-08-31T00:51:52.393Z,3.90
2022-08-31T00:52:02.461Z,3.60
2022-08-31T00:52:12.531Z,3.20
2022-08-31T00:52:22.600Z,2.90
2022-08-31T00:52:33.354Z,2.20
2022-08-31T00:52:42.777Z,2.50
2022-08-31T00:52:52.869Z,2.50
2022-08-31T00:53:02.941Z,2.70
2022-08-31T00:53:13.062Z,2.60
2022-08-31T00:53:23.131Z,2.00
2022-08-31T00:53:33.199Z,2.40
2022-08-31T00:53:43.272Z,2.80
2022-08-31T00:53:53.333Z,3.20
2022-08-31T00:54:03.412Z,4.00
2022-08-31T00:54:13.552Z,3.50
2022-08-31T00:54:23.590Z,3.40
2022-08-31T00:54:33.622Z,3.40
2022-08-31T00:54:43.672Z,4.10
2022-08-31T00:54:53.712Z,4.50
2022-08-31T00:55:03.751Z,4.10
2022-08-31T00:55:13.803Z,6.80
2022-08-31T00:55:23.854Z,6.60
2022-08-31T00:55:33.931Z,6.10
2022-08-31T00:55:43.991Z,3.10
2022-08-31T00:55:54.027Z,2.50
2022-08-31T00:56:04.061Z,2.50
2022-08-31T00:56:14.121Z,3.60
2022-08-31T00:56:24.170Z,3.40
2022-08-31T00:56:34.201Z,3.20
2022-08-31T00:56:44.263Z,2.20
2022-08-31T00:56:54.332Z,3.50
2022-08-31T00:57:04.402Z,3.20
2022-08-31T00:57:14.492Z,3.50
2022-08-31T00:57:24.672Z,2.60
2022-08-31T00:57:35.541Z,2.70
2022-08-31T00:57:45.612Z,2.60
2022-08-31T00:57:55.701Z,3.30
2022-08-31T00:58:05.774Z,3.40
2022-08-31T00:58:15.859Z,3.70
2022-08-31T00:58:25.931Z,3.40
2022-08-31T00:58:36.002Z,3.70
2022-08-31T00:58:46.080Z,3.10
2022-08-31T00:58:57.041Z,2.20
2022-08-31T00:59:07.128Z,1.90
2022-08-31T00:59:17.201Z,2.10
2022-08-31T00:59:27.262Z,2.60
2022-08-31T00:59:37.345Z,2.80
2022-08-31T00:59:47.411Z,3.30
2022-08-31T00:59:57.481Z,3.80
2022-08-31T01:00:07.550Z,3.70
2022-08-31T01:00:17.623Z,3.20
2022-08-31T01:00:27.681Z,2.30
2022-08-31T01:00:37.834Z,2.30
2022-08-31T01:00:47.846Z,2.10
2022-08-31T01:00:57.925Z,2.70
2022-08-31T01:01:08.033Z,2.90
2022-08-31T01:01:18.217Z,2.60
2022-08-31T01:01:28.265Z,4.10
2022-08-31T01:01:38.248Z,5.80
2022-08-31T01:01:48.406Z,6.20
2022-08-31T01:01:58.533Z,5.80
2022-08-31T01:02:08.685Z,4.60
2022-08-31T01:02:18.800Z,4.80
2022-08-31T01:02:28.891Z,3.80
2022-08-31T01:02:38.950Z,4.50
2022-08-31T01:02:49.028Z,3.60
2022-08-31T01:02:59.100Z,4.00
2022-08-31T01:03:09.165Z,2.30
2022-08-31T01:03:19.411Z,3.60
2022-08-31T01:03:29.231Z,3.50
2022-08-31T01:03:39.284Z,4.40
2022-08-31T01:03:49.371Z,3.70
2022-08-31T01:03:59.433Z,6.10
2022-08-31T01:04:09.511Z,7.00
2022-08-31T01:04:19.590Z,6.30
2022-08-31T01:04:29.642Z,3.80
2022-08-31T01:04:39.709Z,2.90
2022-08-31T01:04:49.771Z,5.70
2022-08-31T01:04:59.811Z,5.80
2022-08-31T01:05:09.876Z,6.10
2022-08-31T01:05:19.922Z,4.00
2022-08-31T01:05:29.988Z,3.60
2022-08-31T01:05:40.051Z,2.80
2022-08-31T01:05:50.112Z,2.00
2022-08-31T01:06:00.180Z,3.20
2022-08-31T01:06:10.273Z,3.40
2022-08-31T01:06:20.331Z,4.40
2022-08-31T01:06:30.391Z,4.30
2022-08-31T01:06:40.449Z,5.20
2022-08-31T01:06:50.512Z,4.60
2022-08-31T01:07:00.581Z,4.70
2022-08-31T01:07:10.650Z,4.20
2022-08-31T01:07:20.701Z,4.20
2022-08-31T01:07:30.761Z,3.50
2022-08-31T01:07:40.822Z,2.90
2022-08-31T01:07:50.925Z,3.50
2022-08-31T01:08:00.999Z,3.30
2022-08-31T01:08:11.074Z,3.50
2022-08-31T01:08:27.116Z,2.20
2022-08-31T01:08:32.101Z,2.50
2022-08-31T01:08:42.181Z,3.50
2022-08-31T01:08:52.251Z,3.30
2022-08-31T01:09:02.308Z,2.80
2022-08-31T01:09:12.372Z,1.60
2022-08-31T01:09:22.432Z,2.70
2022-08-31T01:09:32.501Z,3.40
2022-08-31T01:09:55.346Z,3.30
2022-08-31T01:09:55.618Z,4.00
2022-08-31T01:10:03.601Z,5.10
2022-08-31T01:10:13.661Z,6.00
2022-08-31T01:10:23.783Z,4.70
2022-08-31T01:10:33.842Z,3.60
2022-08-31T01:10:43.932Z,3.30
2022-08-31T01:10:54.024Z,4.20
2022-08-31T01:11:04.112Z,4.40
2022-08-31T01:11:14.111Z,4.80
2022-08-31T01:11:24.168Z,3.90
2022-08-31T01:11:34.232Z,3.20
2022-08-31T01:11:44.291Z,2.40
2022-08-31T01:11:54.352Z,2.20
2022-08-31T01:12:04.421Z,2.70
2022-08-31T01:12:14.492Z,3.10
2022-08-31T01:12:24.559Z,3.90
2022-08-31T01:12:34.732Z,4.40
2022-08-31T01:12:44.742Z,4.70
2022-08-31T01:12:54.832Z,4.10
2022-08-31T01:13:04.901Z,3.60
2022-08-31T01:13:14.991Z,3.10
2022-08-31T01:13:25.041Z,4.00
2022-08-31T01:13:35.139Z,4.00
2022-08-31T01:13:45.202Z,4.00
2022-08-31T01:13:55.261Z,4.20
2022-08-31T01:14:05.331Z,3.50
2022-08-31T01:14:15.392Z,4.00
2022-08-31T01:14:25.452Z,3.30
2022-08-31T01:14:35.510Z,3.60
2022-08-31T01:14:45.589Z,3.10
2022-08-31T01:14:55.639Z,2.40
2022-08-31T01:15:05.721Z,2.90
2022-08-31T01:15:15.790Z,3.50
2022-08-31T01:15:25.852Z,4.60
2022-08-31T01:15:35.911Z,5.20
2022-08-31T01:15:45.973Z,4.40
2022-08-31T01:15:56.093Z,3.50
2022-08-31T01:16:06.211Z,2.00
2022-08-31T01:16:16.285Z,2.20
2022-08-31T01:16:26.408Z,2.00
2022-08-31T01:16:36.581Z,2.60
2022-08-31T01:16:46.719Z,3.90
2022-08-31T01:16:56.789Z,4.30
2022-08-31T01:17:06.906Z,3.60
2022-08-31T01:17:16.980Z,3.50
2022-08-31T01:17:27.041Z,3.60
2022-08-31T01:17:37.111Z,4.10
2022-08-31T01:17:47.179Z,2.60
2022-08-31T01:17:57.269Z,2.60
2022-08-31T01:18:07.320Z,2.40
2022-08-31T01:18:17.382Z,2.50
2022-08-31T01:18:27.464Z,2.30
2022-08-31T01:18:37.521Z,3.70
2022-08-31T01:18:47.580Z,4.80
2022-08-31T01:18:57.649Z,4.70
2022-08-31T01:19:07.741Z,3.20
2022-08-31T01:19:17.811Z,2.90
2022-08-31T01:19:27.881Z,2.50
2022-08-31T01:19:37.961Z,3.00
2022-08-31T01:19:48.032Z,2.40
2022-08-31T01:19:58.112Z,3.90
2022-08-31T01:20:08.181Z,3.60
2022-08-31T01:20:18.250Z,3.30
2022-08-31T01:20:28.311Z,1.80
2022-08-31T01:20:38.379Z,2.50
2022-08-31T01:20:49.484Z,2.50
2022-08-31T01:20:59.358Z,3.10
2022-08-31T01:21:09.422Z,3.90
2022-08-31T01:21:19.508Z,4.10
2022-08-31T01:21:29.579Z,3.70
2022-08-31T01:21:39.661Z,2.50
2022-08-31T01:21:49.741Z,4.40
2022-08-31T01:21:59.821Z,4.90
2022-08-31T01:22:09.902Z,4.90
2022-08-31T01:22:19.971Z,3.80
2022-08-31T01:22:30.040Z,3.20
2022-08-31T01:22:40.100Z,3.80
2022-08-31T01:22:50.171Z,3.60
2022-08-31T01:23:00.261Z,4.00
2022-08-31T01:23:10.369Z,3.50
2022-08-31T01:23:20.429Z,3.40
2022-08-31T01:23:30.481Z,3.10
2022-08-31T01:23:40.559Z,3.70
2022-08-31T01:23:50.637Z,2.90
2022-08-31T01:24:00.709Z,2.70
2022-08-31T01:24:10.798Z,2.50
2022-08-31T01:24:20.871Z,4.10
2022-08-31T01:24:30.950Z,4.10
2022-08-31T01:24:41.008Z,4.60
2022-08-31T01:24:51.071Z,2.90
2022-08-31T01:25:01.146Z,3.70
2022-08-31T01:25:11.221Z,3.80
2022-08-31T01:25:21.281Z,4.50
2022-08-31T01:25:33.636Z,4.50
2022-08-31T01:25:41.500Z,3.80
2022-08-31T01:25:51.570Z,3.70
2022-08-31T01:26:01.631Z,3.30
2022-08-31T01:26:11.713Z,2.40
2022-08-31T01:26:21.779Z,3.30
2022-08-31T01:26:31.871Z,4.00
2022-08-31T01:26:41.942Z,6.50
2022-08-31T01:26:55.646Z,6.90
2022-08-31T01:27:02.182Z,6.80
2022-08-31T01:27:12.280Z,5.40
2022-08-31T01:27:22.381Z,5.70
2022-08-31T01:27:32.438Z,4.20
2022-08-31T01:27:42.522Z,4.90
2022-08-31T01:27:52.581Z,3.10
2022-08-31T01:28:02.661Z,4.30
2022-08-31T01:28:12.741Z,3.50
2022-08-31T01:28:22.810Z,3.50
2022-08-31T01:28:32.880Z,2.90
2022-08-31T01:28:42.960Z,2.50
2022-08-31T01:28:53.028Z,5.00
2022-08-31T01:29:03.095Z,4.70
2022-08-31T01:29:13.200Z,5.40
2022-08-31T01:29:23.289Z,3.20
2022-08-31T01:29:33.354Z,2.70
2022-08-31T01:29:43.420Z,3.50
2022-08-31T01:29:57.499Z,3.60
2022-08-31T01:30:07.570Z,3.90
2022-08-31T01:30:17.672Z,3.70
2022-08-31T01:30:27.776Z,6.20
2022-08-31T01:30:37.841Z,5.90
2022-08-31T01:30:47.932Z,5.40
2022-08-31T01:30:58.002Z,2.90
2022-08-31T01:31:08.144Z,4.10
2022-08-31T01:31:18.244Z,4.80
2022-08-31T01:31:28.352Z,4.50
2022-08-31T01:31:38.556Z,3.50
2022-08-31T01:31:48.503Z,3.40
2022-08-31T01:31:58.628Z,3.30
2022-08-31T01:32:08.742Z,3.20
2022-08-31T01:32:18.838Z,2.50
2022-08-31T01:32:28.931Z,2.40
2022-08-31T01:32:39.035Z,2.50
2022-08-31T01:32:49.094Z,3.00
2022-08-31T01:32:59.181Z,2.80
2022-08-31T01:33:09.286Z,2.30
2022-08-31T01:33:19.585Z,1.90
2022-08-31T01:33:29.415Z,2.40
2022-08-31T01:33:39.482Z,2.30
2022-08-31T01:33:49.568Z,3.90
2022-08-31T01:33:59.631Z,4.20
2022-08-31T01:34:09.711Z,4.60
2022-08-31T01:34:19.851Z,3.60
2022-08-31T01:34:29.934Z,4.60
2022-08-31T01:34:40.011Z,5.10
2022-08-31T01:34:50.100Z,4.50
2022-08-31T01:35:00.244Z,2.80
2022-08-31T01:35:11.326Z,3.00
2022-08-31T01:35:20.393Z,3.20
2022-08-31T01:35:30.462Z,3.60
2022-08-31T01:35:40.612Z,3.70
2022-08-31T01:35:50.671Z,3.90
2022-08-31T01:36:00.742Z,4.20
2022-08-31T01:36:15.412Z,4.30
2022-08-31T01:36:21.816Z,4.60
2022-08-31T01:36:31.831Z,4.50
2022-08-31T01:36:41.901Z,3.10
2022-08-31T01:36:51.981Z,3.00
2022-08-31T01:37:02.061Z,2.40
2022-08-31T01:37:12.139Z,3.50
2022-08-31T01:37:29.264Z,3.70
2022-08-31T01:37:33.255Z,5.20
2022-08-31T01:37:43.451Z,4.60
2022-08-31T01:37:53.511Z,5.10
2022-08-31T01:38:03.600Z,3.60
2022-08-31T01:38:13.663Z,4.50
2022-08-31T01:38:23.730Z,3.30
2022-08-31T01:38:33.801Z,4.30
2022-08-31T01:38:43.892Z,4.20
2022-08-31T01:38:53.951Z,5.40
2022-08-31T01:39:04.031Z,4.60
2022-08-31T01:39:14.090Z,3.90
2022-08-31T01:39:24.170Z,3.60
2022-08-31T01:39:34.252Z,4.40
2022-08-31T01:39:44.341Z,4.60
2022-08-31T01:39:54.413Z,4.90
2022-08-31T01:40:04.509Z,5.20
2022-08-31T01:40:14.628Z,4.30
2022-08-31T01:40:24.777Z,4.00
2022-08-31T01:40:34.910Z,3.20
2022-08-31T01:40:45.031Z,3.40
2022-08-31T01:40:55.133Z,2.60
2022-08-31T01:41:05.201Z,2.40
2022-08-31T01:41:15.272Z,2.90
2022-08-31T01:41:25.351Z,3.20
2022-08-31T01:41:35.430Z,3.60
2022-08-31T01:41:45.501Z,3.70
2022-08-31T01:41:55.580Z,3.90
2022-08-31T01:42:05.652Z,3.70
2022-08-31T01:42:15.752Z,3.60
2022-08-31T01:42:33.301Z,3.50
2022-08-31T01:42:36.800Z,3.70
2022-08-31T01:42:46.882Z,3.30
2022-08-31T01:42:56.962Z,3.20
2022-08-31T01:43:07.023Z,3.00
2022-08-31T01:43:17.253Z,3.90
2022-08-31T01:43:27.221Z,4.60
2022-08-31T01:43:37.316Z,5.00
2022-08-31T01:43:47.411Z,4.80
2022-08-31T01:43:57.484Z,4.90
2022-08-31T01:44:07.601Z,5.00
2022-08-31T01:44:17.713Z,4.50
2022-08-31T01:44:27.811Z,4.10
2022-08-31T01:44:37.891Z,3.20
2022-08-31T01:44:47.982Z,3.20
2022-08-31T01:44:58.061Z,3.50
2022-08-31T01:45:08.122Z,3.70
2022-08-31T01:45:18.211Z,4.30
2022-08-31T01:45:28.298Z,5.30
2022-08-31T01:45:38.371Z,4.90
2022-08-31T01:45:48.447Z,4.00
2022-08-31T01:45:58.511Z,4.30
2022-08-31T01:46:08.959Z,5.10
2022-08-31T01:46:18.645Z,5.00
2022-08-31T01:46:28.725Z,3.80
2022-08-31T01:46:38.820Z,3.50
2022-08-31T01:46:48.963Z,5.30
2022-08-31T01:46:59.059Z,5.30
2022-08-31T01:47:09.253Z,4.90
2022-08-31T01:47:19.172Z,6.00
2022-08-31T01:47:29.300Z,6.50
2022-08-31T01:47:39.380Z,5.60
2022-08-31T01:47:49.461Z,3.70
2022-08-31T01:47:59.530Z,3.00
2022-08-31T01:48:09.598Z,3.70
2022-08-31T01:48:19.669Z,4.30
2022-08-31T01:48:29.751Z,5.00
2022-08-31T01:48:41.594Z,4.70
2022-08-31T01:48:49.879Z,4.70
2022-08-31T01:48:59.951Z,4.30
2022-08-31T01:49:10.020Z,4.20
2022-08-31T01:49:20.112Z,3.30
2022-08-31T01:49:30.191Z,2.80
2022-08-31T01:49:40.263Z,3.50
2022-08-31T01:49:50.320Z,3.00
2022-08-31T01:50:00.463Z,3.80
2022-08-31T01:50:10.532Z,3.90
2022-08-31T01:50:20.603Z,7.70
2022-08-31T01:50:30.680Z,7.30
2022-08-31T01:50:40.751Z,7.90
2022-08-31T01:50:50.858Z,4.40
2022-08-31T01:51:00.955Z,3.50
2022-08-31T01:51:12.476Z,3.10
2022-08-31T01:51:21.179Z,3.70
2022-08-31T01:51:31.253Z,4.80
2022-08-31T01:51:41.345Z,3.80
2022-08-31T01:51:51.411Z,4.60
2022-08-31T01:52:01.493Z,3.90
2022-08-31T01:52:11.589Z,5.60
2022-08-31T01:52:21.681Z,4.30
2022-08-31T01:52:31.659Z,4.50
2022-08-31T01:52:41.740Z,2.70
2022-08-31T01:52:51.821Z,2.50
2022-08-31T01:53:01.911Z,2.10
2022-08-31T01:53:12.013Z,1.90
2022-08-31T01:53:22.061Z,2.30
2022-08-31T01:53:32.140Z,2.40
2022-08-31T01:53:45.274Z,2.80
2022-08-31T01:53:52.261Z,4.90
2022-08-31T01:54:02.340Z,5.60
2022-08-31T01:54:12.410Z,5.10
2022-08-31T01:54:22.482Z,3.00
2022-08-31T01:54:32.573Z,2.40
2022-08-31T01:54:42.641Z,2.90
2022-08-31T01:54:52.712Z,3.20
2022-08-31T01:55:02.791Z,3.50
2022-08-31T01:55:12.921Z,3.80
2022-08-31T01:55:22.999Z,4.40
2022-08-31T01:55:33.061Z,4.30
2022-08-31T01:55:43.132Z,3.40
2022-08-31T01:55:53.200Z,2.40
2022-08-31T01:56:03.291Z,2.60
2022-08-31T01:56:13.371Z,2.80
2022-08-31T01:56:23.459Z,3.20
2022-08-31T01:56:33.530Z,2.80
2022-08-31T01:56:43.621Z,2.80
2022-08-31T01:56:53.738Z,2.30
2022-08-31T01:57:03.811Z,3.00
2022-08-31T01:57:13.889Z,3.80
2022-08-31T01:57:33.478Z,4.00
2022-08-31T01:57:34.930Z,3.40
2022-08-31T01:57:45.062Z,2.40
2022-08-31T01:57:55.121Z,2.70
2022-08-31T01:58:05.229Z,2.90
2022-08-31T01:58:15.335Z,2.30
2022-08-31T01:58:25.401Z,2.40
2022-08-31T01:58:35.472Z,2.40
2022-08-31T01:58:45.550Z,3.10
2022-08-31T01:58:55.611Z,2.80
2022-08-31T01:59:08.351Z,2.70
2022-08-31T01:59:15.691Z,2.00
2022-08-31T01:59:25.781Z,2.70
2022-08-31T01:59:35.838Z,3.30
2022-08-31T01:59:45.902Z,3.50
2022-08-31T01:59:55.991Z,3.00
2022-08-31T02:00:06.069Z,2.30
2022-08-31T02:00:16.141Z,2.20
2022-08-31T02:00:26.214Z,2.70
2022-08-31T02:00:36.328Z,2.80
2022-08-31T02:00:46.520Z,2.80
2022-08-31T02:00:56.497Z,3.10
2022-08-31T02:01:10.355Z,3.70
2022-08-31T02:01:33.992Z,3.40
2022-08-31T02:01:34.241Z,2.50
2022-08-31T02:01:39.594Z,3.20
2022-08-31T02:01:49.627Z,3.10
2022-08-31T02:01:59.615Z,4.00
2022-08-31T02:02:09.748Z,3.40
2022-08-31T02:02:19.887Z,3.30
2022-08-31T02:02:30.200Z,3.60
2022-08-31T02:02:40.054Z,3.00
2022-08-31T02:02:50.210Z,3.20
2022-08-31T02:03:00.134Z,2.30
2022-08-31T02:03:10.191Z,3.40
2022-08-31T02:03:20.262Z,3.90
2022-08-31T02:03:30.340Z,4.20
2022-08-31T02:03:40.401Z,3.20
2022-08-31T02:03:50.480Z,3.40
2022-08-31T02:04:00.569Z,3.10
2022-08-31T02:04:10.641Z,4.10
2022-08-31T02:04:20.729Z,4.00
2022-08-31T02:04:30.801Z,3.70
2022-08-31T02:04:40.871Z,4.00
2022-08-31T02:04:50.961Z,3.50
2022-08-31T02:05:01.039Z,3.40
2022-08-31T02:05:11.111Z,3.60
2022-08-31T02:05:21.189Z,2.90
2022-08-31T02:05:31.271Z,3.00
2022-08-31T02:05:41.361Z,2.50
2022-08-31T02:05:51.430Z,3.10
